sensor_id;sensor_type;location;lat;lon;timestamp;temperature;humidity
15413;DHT22;7805;49.554;7.632;2023-03-14T00:01:56;11.60;99.90
15413;DHT22;7805;49.554;7.632;2023-03-14T00:04:22;11.60;99.90
15413;DHT22;7805;49.554;7.632;2023-03-14T00:06:47;11.60;99.90
15413;DHT22;7805;49.554;7.632;2023-03-14T00:09:15;11.60;99.90
15413;DHT22;7805;49.554;7.632;2023-03-14T00:11:40;11.60;99.90
15413;DHT22;7805;49.554;7.632;2023-03-14T00:14:06;11.60;99.90
15413;DHT22;7805;49.554;7.632;2023-03-14T00:16:31;11.60;99.90
15413;DHT22;7805;49.554;7.632;2023-03-14T00:19:00;11.50;99.90
15413;DHT22;7805;49.554;7.632;2023-03-14T00:21:26;11.50;99.90
15413;DHT22;7805;49.554;7.632;2023-03-14T00:23:51;11.50;99.90
15413;DHT22;7805;49.554;7.632;2023-03-14T00:26:19;11.50;99.90
15413;DHT22;7805;49.554;7.632;2023-03-14T00:28:46;11.40;99.90
15413;DHT22;7805;49.554;7.632;2023-03-14T00:31:14;11.50;99.90
15413;DHT22;7805;49.554;7.632;2023-03-14T00:33:39;11.40;99.90
15413;DHT22;7805;49.554;7.632;2023-03-14T00:36:08;11.50;99.90
15413;DHT22;7805;49.554;7.632;2023-03-14T00:38:34;11.40;99.90
15413;DHT22;7805;49.554;7.632;2023-03-14T00:41:04;11.30;99.90
15413;DHT22;7805;49.554;7.632;2023-03-14T00:43:30;11.40;99.90
15413;DHT22;7805;49.554;7.632;2023-03-14T00:45:55;11.30;99.90
15413;DHT22;7805;49.554;7.632;2023-03-14T00:48:22;11.30;99.90
15413;DHT22;7805;49.554;7.632;2023-03-14T00:50:47;11.30;99.90
15413;DHT22;7805;49.554;7.632;2023-03-14T00:53:13;11.30;99.90
15413;DHT22;7805;49.554;7.632;2023-03-14T00:55:40;11.40;99.90
15413;DHT22;7805;49.554;7.632;2023-03-14T00:58:06;11.40;99.90
15413;DHT22;7805;49.554;7.632;2023-03-14T01:00:32;11.40;99.90
15413;DHT22;7805;49.554;7.632;2023-03-14T01:02:58;11.40;99.90
15413;DHT22;7805;49.554;7.632;2023-03-14T01:05:24;11.50;99.90
15413;DHT22;7805;49.554;7.632;2023-03-14T01:07:49;11.50;99.90
15413;DHT22;7805;49.554;7.632;2023-03-14T01:10:16;11.40;99.90
15413;DHT22;7805;49.554;7.632;2023-03-14T01:12:42;11.40;99.90
15413;DHT22;7805;49.554;7.632;2023-03-14T01:15:08;11.40;99.90
15413;DHT22;7805;49.554;7.632;2023-03-14T01:17:33;11.40;99.90
15413;DHT22;7805;49.554;7.632;2023-03-14T01:20:00;11.40;99.90
15413;DHT22;7805;49.554;7.632;2023-03-14T01:22:26;11.50;99.90
15413;DHT22;7805;49.554;7.632;2023-03-14T01:24:52;11.40;99.90
15413;DHT22;7805;49.554;7.632;2023-03-14T01:27:17;11.50;99.90
15413;DHT22;7805;49.554;7.632;2023-03-14T01:29:43;11.40;99.90
15413;DHT22;7805;49.554;7.632;2023-03-14T01:32:08;11.40;99.90
15413;DHT22;7805;49.554;7.632;2023-03-14T01:34:34;11.40;99.90
15413;DHT22;7805;49.554;7.632;2023-03-14T01:36:59;11.30;99.90
15413;DHT22;7805;49.554;7.632;2023-03-14T01:39:25;11.30;99.90
15413;DHT22;7805;49.554;7.632;2023-03-14T01:41:50;11.40;99.90
15413;DHT22;7805;49.554;7.632;2023-03-14T01:44:16;11.30;99.90
15413;DHT22;7805;49.554;7.632;2023-03-14T01:46:45;11.30;99.90
15413;DHT22;7805;49.554;7.632;2023-03-14T01:49:21;13.20;99.90
15413;DHT22;7805;49.554;7.632;2023-03-14T01:54:36;11.30;99.90
15413;DHT22;7805;49.554;7.632;2023-03-14T01:59:37;11.30;99.90
15413;DHT22;7805;49.554;7.632;2023-03-14T02:02:06;11.30;99.90
15413;DHT22;7805;49.554;7.632;2023-03-14T02:04:36;11.30;99.90
15413;DHT22;7805;49.554;7.632;2023-03-14T02:07:10;11.30;99.90
15413;DHT22;7805;49.554;7.632;2023-03-14T02:09:38;11.30;99.90
15413;DHT22;7805;49.554;7.632;2023-03-14T02:12:06;11.30;99.90
15413;DHT22;7805;49.554;7.632;2023-03-14T02:14:34;11.30;99.90
15413;DHT22;7805;49.554;7.632;2023-03-14T02:17:01;11.30;99.90
15413;DHT22;7805;49.554;7.632;2023-03-14T02:22:33;11.30;99.90
15413;DHT22;7805;49.554;7.632;2023-03-14T02:25:14;11.30;99.90
15413;DHT22;7805;49.554;7.632;2023-03-14T02:27:41;11.30;99.90
15413;DHT22;7805;49.554;7.632;2023-03-14T02:30:21;11.30;99.90
15413;DHT22;7805;49.554;7.632;2023-03-14T02:32:49;11.40;99.90
15413;DHT22;7805;49.554;7.632;2023-03-14T02:35:23;11.40;99.90
15413;DHT22;7805;49.554;7.632;2023-03-14T02:37:57;11.30;99.90
15413;DHT22;7805;49.554;7.632;2023-03-14T02:40:24;11.30;99.90
15413;DHT22;7805;49.554;7.632;2023-03-14T02:42:50;11.30;99.90
15413;DHT22;7805;49.554;7.632;2023-03-14T02:47:49;11.30;99.90
15413;DHT22;7805;49.554;7.632;2023-03-14T02:50:20;11.30;99.90
15413;DHT22;7805;49.554;7.632;2023-03-14T02:52:46;11.30;99.90
15413;DHT22;7805;49.554;7.632;2023-03-14T02:55:12;11.30;99.90
15413;DHT22;7805;49.554;7.632;2023-03-14T02:57:37;11.30;99.90
15413;DHT22;7805;49.554;7.632;2023-03-14T03:00:04;11.30;99.90
15413;DHT22;7805;49.554;7.632;2023-03-14T03:02:30;11.30;99.90
15413;DHT22;7805;49.554;7.632;2023-03-14T03:04:56;11.30;99.90
15413;DHT22;7805;49.554;7.632;2023-03-14T03:07:22;13.10;99.90
15413;DHT22;7805;49.554;7.632;2023-03-14T03:09:47;11.20;99.90
15413;DHT22;7805;49.554;7.632;2023-03-14T03:12:13;11.30;99.90
15413;DHT22;7805;49.554;7.632;2023-03-14T03:14:38;11.30;99.90
15413;DHT22;7805;49.554;7.632;2023-03-14T03:17:05;11.30;99.90
15413;DHT22;7805;49.554;7.632;2023-03-14T03:19:31;11.30;99.90
15413;DHT22;7805;49.554;7.632;2023-03-14T03:21:57;11.30;99.90
15413;DHT22;7805;49.554;7.632;2023-03-14T03:24:23;11.30;99.90
15413;DHT22;7805;49.554;7.632;2023-03-14T03:26:49;11.30;99.90
15413;DHT22;7805;49.554;7.632;2023-03-14T03:29:15;11.30;99.90
15413;DHT22;7805;49.554;7.632;2023-03-14T03:31:41;11.30;99.90
15413;DHT22;7805;49.554;7.632;2023-03-14T03:34:07;11.30;99.90
15413;DHT22;7805;49.554;7.632;2023-03-14T03:36:33;11.30;99.90
15413;DHT22;7805;49.554;7.632;2023-03-14T03:38:59;11.30;99.90
15413;DHT22;7805;49.554;7.632;2023-03-14T03:41:24;11.30;99.90
15413;DHT22;7805;49.554;7.632;2023-03-14T03:43:50;11.20;99.90
15413;DHT22;7805;49.554;7.632;2023-03-14T03:46:16;11.20;99.90
15413;DHT22;7805;49.554;7.632;2023-03-14T03:48:41;11.20;99.90
15413;DHT22;7805;49.554;7.632;2023-03-14T03:51:07;11.20;99.90
15413;DHT22;7805;49.554;7.632;2023-03-14T03:53:35;11.10;99.90
15413;DHT22;7805;49.554;7.632;2023-03-14T03:56:01;11.10;99.90
15413;DHT22;7805;49.554;7.632;2023-03-14T03:58:26;11.00;99.90
15413;DHT22;7805;49.554;7.632;2023-03-14T04:00:52;11.00;99.90
15413;DHT22;7805;49.554;7.632;2023-03-14T04:03:17;11.00;99.90
15413;DHT22;7805;49.554;7.632;2023-03-14T04:05:43;11.00;99.90
15413;DHT22;7805;49.554;7.632;2023-03-14T04:08:09;10.90;99.90
15413;DHT22;7805;49.554;7.632;2023-03-14T04:10:35;10.80;99.90
15413;DHT22;7805;49.554;7.632;2023-03-14T04:13:01;10.90;99.90
15413;DHT22;7805;49.554;7.632;2023-03-14T04:15:26;10.80;99.90
15413;DHT22;7805;49.554;7.632;2023-03-14T04:17:57;10.80;99.90
15413;DHT22;7805;49.554;7.632;2023-03-14T04:20:23;10.90;99.90
15413;DHT22;7805;49.554;7.632;2023-03-14T04:22:48;10.80;99.90
15413;DHT22;7805;49.554;7.632;2023-03-14T04:25:14;10.70;99.90
15413;DHT22;7805;49.554;7.632;2023-03-14T04:27:41;10.60;99.90
15413;DHT22;7805;49.554;7.632;2023-03-14T04:30:07;10.60;99.90
15413;DHT22;7805;49.554;7.632;2023-03-14T04:32:33;10.60;99.90
15413;DHT22;7805;49.554;7.632;2023-03-14T04:34:59;10.50;99.90
15413;DHT22;7805;49.554;7.632;2023-03-14T04:37:24;10.50;99.90
15413;DHT22;7805;49.554;7.632;2023-03-14T04:39:50;10.50;99.90
15413;DHT22;7805;49.554;7.632;2023-03-14T04:42:15;10.40;99.90
15413;DHT22;7805;49.554;7.632;2023-03-14T04:44:41;10.50;99.90
15413;DHT22;7805;49.554;7.632;2023-03-14T04:47:08;10.50;99.90
15413;DHT22;7805;49.554;7.632;2023-03-14T04:49:34;10.40;99.90
15413;DHT22;7805;49.554;7.632;2023-03-14T04:51:59;10.40;99.90
15413;DHT22;7805;49.554;7.632;2023-03-14T04:54:25;10.50;99.90
15413;DHT22;7805;49.554;7.632;2023-03-14T04:56:50;10.40;99.90
15413;DHT22;7805;49.554;7.632;2023-03-14T04:59:16;10.40;99.90
15413;DHT22;7805;49.554;7.632;2023-03-14T05:01:41;10.40;99.90
15413;DHT22;7805;49.554;7.632;2023-03-14T05:04:07;10.50;99.90
15413;DHT22;7805;49.554;7.632;2023-03-14T05:06:32;12.00;99.90
15413;DHT22;7805;49.554;7.632;2023-03-14T05:08:58;10.50;99.90
15413;DHT22;7805;49.554;7.632;2023-03-14T05:11:23;10.40;99.90
15413;DHT22;7805;49.554;7.632;2023-03-14T05:13:49;10.40;99.90
15413;DHT22;7805;49.554;7.632;2023-03-14T05:16:15;10.30;99.90
15413;DHT22;7805;49.554;7.632;2023-03-14T05:18:40;10.30;99.90
15413;DHT22;7805;49.554;7.632;2023-03-14T05:21:06;10.40;99.90
15413;DHT22;7805;49.554;7.632;2023-03-14T05:23:31;10.40;99.90
15413;DHT22;7805;49.554;7.632;2023-03-14T05:25:57;10.40;99.90
15413;DHT22;7805;49.554;7.632;2023-03-14T05:28:23;10.40;99.90
15413;DHT22;7805;49.554;7.632;2023-03-14T05:30:48;10.40;99.90
15413;DHT22;7805;49.554;7.632;2023-03-14T05:33:14;10.30;99.90
15413;DHT22;7805;49.554;7.632;2023-03-14T05:35:39;10.40;99.90
15413;DHT22;7805;49.554;7.632;2023-03-14T05:38:05;10.40;99.90
15413;DHT22;7805;49.554;7.632;2023-03-14T05:40:30;8.20;99.90
15413;DHT22;7805;49.554;7.632;2023-03-14T05:42:56;10.40;99.90
15413;DHT22;7805;49.554;7.632;2023-03-14T05:45:21;10.30;99.90
15413;DHT22;7805;49.554;7.632;2023-03-14T05:47:47;10.30;99.90
15413;DHT22;7805;49.554;7.632;2023-03-14T05:50:13;10.30;99.90
15413;DHT22;7805;49.554;7.632;2023-03-14T05:52:38;10.30;99.90
15413;DHT22;7805;49.554;7.632;2023-03-14T05:55:04;10.30;99.90
15413;DHT22;7805;49.554;7.632;2023-03-14T05:57:30;11.90;99.90
15413;DHT22;7805;49.554;7.632;2023-03-14T05:59:55;10.30;99.90
15413;DHT22;7805;49.554;7.632;2023-03-14T06:02:21;10.30;99.90
15413;DHT22;7805;49.554;7.632;2023-03-14T06:04:46;10.30;99.90
15413;DHT22;7805;49.554;7.632;2023-03-14T06:07:12;10.30;99.90
15413;DHT22;7805;49.554;7.632;2023-03-14T06:09:38;10.30;99.90
15413;DHT22;7805;49.554;7.632;2023-03-14T06:12:05;10.30;99.90
15413;DHT22;7805;49.554;7.632;2023-03-14T06:14:31;10.40;99.90
15413;DHT22;7805;49.554;7.632;2023-03-14T06:16:57;10.40;99.90
15413;DHT22;7805;49.554;7.632;2023-03-14T06:19:24;10.30;99.90
15413;DHT22;7805;49.554;7.632;2023-03-14T06:21:50;10.40;99.90
15413;DHT22;7805;49.554;7.632;2023-03-14T06:24:16;10.40;99.90
15413;DHT22;7805;49.554;7.632;2023-03-14T06:26:42;10.30;99.90
15413;DHT22;7805;49.554;7.632;2023-03-14T06:29:08;10.40;99.90
15413;DHT22;7805;49.554;7.632;2023-03-14T06:31:34;10.30;99.90
15413;DHT22;7805;49.554;7.632;2023-03-14T06:33:59;10.30;99.90
15413;DHT22;7805;49.554;7.632;2023-03-14T06:36:25;10.30;99.90
15413;DHT22;7805;49.554;7.632;2023-03-14T06:38:50;10.30;99.90
15413;DHT22;7805;49.554;7.632;2023-03-14T06:41:16;10.30;99.90
15413;DHT22;7805;49.554;7.632;2023-03-14T06:43:42;10.30;99.90
15413;DHT22;7805;49.554;7.632;2023-03-14T06:46:08;10.30;99.90
15413;DHT22;7805;49.554;7.632;2023-03-14T06:48:33;10.30;99.90
15413;DHT22;7805;49.554;7.632;2023-03-14T06:50:59;10.30;99.90
15413;DHT22;7805;49.554;7.632;2023-03-14T06:53:24;10.30;99.90
15413;DHT22;7805;49.554;7.632;2023-03-14T06:55:50;10.40;99.90
15413;DHT22;7805;49.554;7.632;2023-03-14T06:58:15;10.40;99.90
15413;DHT22;7805;49.554;7.632;2023-03-14T07:00:41;10.60;99.90
15413;DHT22;7805;49.554;7.632;2023-03-14T07:03:08;10.40;99.90
15413;DHT22;7805;49.554;7.632;2023-03-14T07:05:34;10.40;99.90
15413;DHT22;7805;49.554;7.632;2023-03-14T07:07:59;10.40;99.90
15413;DHT22;7805;49.554;7.632;2023-03-14T07:10:25;10.40;99.90
15413;DHT22;7805;49.554;7.632;2023-03-14T07:12:50;10.50;99.90
15413;DHT22;7805;49.554;7.632;2023-03-14T07:15:17;10.50;99.90
15413;DHT22;7805;49.554;7.632;2023-03-14T07:17:43;10.60;99.90
15413;DHT22;7805;49.554;7.632;2023-03-14T07:20:09;10.00;99.90
15413;DHT22;7805;49.554;7.632;2023-03-14T07:22:35;10.60;99.90
15413;DHT22;7805;49.554;7.632;2023-03-14T07:25:00;10.60;99.90
15413;DHT22;7805;49.554;7.632;2023-03-14T07:27:26;10.60;99.90
15413;DHT22;7805;49.554;7.632;2023-03-14T07:29:51;10.60;99.90
15413;DHT22;7805;49.554;7.632;2023-03-14T07:32:17;10.70;99.90
15413;DHT22;7805;49.554;7.632;2023-03-14T07:34:43;10.70;99.90
15413;DHT22;7805;49.554;7.632;2023-03-14T07:37:09;10.70;99.90
15413;DHT22;7805;49.554;7.632;2023-03-14T07:39:35;10.70;99.90
15413;DHT22;7805;49.554;7.632;2023-03-14T07:42:00;10.70;99.90
15413;DHT22;7805;49.554;7.632;2023-03-14T07:44:26;10.80;99.90
15413;DHT22;7805;49.554;7.632;2023-03-14T07:46:52;10.80;99.90
15413;DHT22;7805;49.554;7.632;2023-03-14T07:49:18;10.70;99.90
15413;DHT22;7805;49.554;7.632;2023-03-14T07:51:46;10.70;99.90
15413;DHT22;7805;49.554;7.632;2023-03-14T07:54:12;10.70;99.90
15413;DHT22;7805;49.554;7.632;2023-03-14T07:56:38;10.80;99.90
15413;DHT22;7805;49.554;7.632;2023-03-14T07:59:03;10.80;99.90
15413;DHT22;7805;49.554;7.632;2023-03-14T08:01:29;10.80;99.90
15413;DHT22;7805;49.554;7.632;2023-03-14T08:03:54;10.80;99.90
15413;DHT22;7805;49.554;7.632;2023-03-14T08:06:20;10.80;99.90
15413;DHT22;7805;49.554;7.632;2023-03-14T08:08:46;10.80;99.90
15413;DHT22;7805;49.554;7.632;2023-03-14T08:11:11;10.80;99.90
15413;DHT22;7805;49.554;7.632;2023-03-14T08:13:37;10.80;99.90
15413;DHT22;7805;49.554;7.632;2023-03-14T08:16:03;10.80;99.90
15413;DHT22;7805;49.554;7.632;2023-03-14T08:18:29;10.80;99.90
15413;DHT22;7805;49.554;7.632;2023-03-14T08:20:55;10.90;99.90
15413;DHT22;7805;49.554;7.632;2023-03-14T08:23:21;11.00;99.90
15413;DHT22;7805;49.554;7.632;2023-03-14T08:25:49;11.10;99.90
15413;DHT22;7805;49.554;7.632;2023-03-14T08:28:15;11.20;99.90
15413;DHT22;7805;49.554;7.632;2023-03-14T08:30:41;11.20;99.90
15413;DHT22;7805;49.554;7.632;2023-03-14T08:33:06;11.20;99.90
15413;DHT22;7805;49.554;7.632;2023-03-14T08:35:32;10.20;99.90
15413;DHT22;7805;49.554;7.632;2023-03-14T08:37:57;11.10;99.90
15413;DHT22;7805;49.554;7.632;2023-03-14T08:40:23;11.20;99.90
15413;DHT22;7805;49.554;7.632;2023-03-14T08:42:49;11.20;99.90
15413;DHT22;7805;49.554;7.632;2023-03-14T08:45:15;11.20;99.90
15413;DHT22;7805;49.554;7.632;2023-03-14T08:47:42;11.10;99.90
15413;DHT22;7805;49.554;7.632;2023-03-14T08:50:09;11.20;99.90
15413;DHT22;7805;49.554;7.632;2023-03-14T08:52:35;11.20;99.90
15413;DHT22;7805;49.554;7.632;2023-03-14T08:55:00;11.20;99.90
15413;DHT22;7805;49.554;7.632;2023-03-14T08:57:26;11.20;99.90
15413;DHT22;7805;49.554;7.632;2023-03-14T08:59:55;11.20;99.90
15413;DHT22;7805;49.554;7.632;2023-03-14T09:02:21;11.30;99.90
15413;DHT22;7805;49.554;7.632;2023-03-14T09:04:47;11.30;99.90
15413;DHT22;7805;49.554;7.632;2023-03-14T09:07:13;11.30;99.90
15413;DHT22;7805;49.554;7.632;2023-03-14T09:09:38;11.40;99.90
15413;DHT22;7805;49.554;7.632;2023-03-14T09:12:04;11.50;99.90
15413;DHT22;7805;49.554;7.632;2023-03-14T09:14:30;11.60;99.90
15413;DHT22;7805;49.554;7.632;2023-03-14T09:16:57;11.80;99.90
15413;DHT22;7805;49.554;7.632;2023-03-14T09:19:22;11.90;99.90
15413;DHT22;7805;49.554;7.632;2023-03-14T09:21:48;12.30;99.90
15413;DHT22;7805;49.554;7.632;2023-03-14T09:24:14;12.40;99.90
15413;DHT22;7805;49.554;7.632;2023-03-14T09:26:40;12.40;99.90
15413;DHT22;7805;49.554;7.632;2023-03-14T09:29:05;12.30;99.90
15413;DHT22;7805;49.554;7.632;2023-03-14T09:31:31;12.30;99.90
15413;DHT22;7805;49.554;7.632;2023-03-14T09:33:56;12.10;99.90
15413;DHT22;7805;49.554;7.632;2023-03-14T09:36:22;12.20;99.90
15413;DHT22;7805;49.554;7.632;2023-03-14T09:38:48;12.20;99.90
15413;DHT22;7805;49.554;7.632;2023-03-14T09:41:33;12.30;99.90
15413;DHT22;7805;49.554;7.632;2023-03-14T09:44:24;12.40;99.90
15413;DHT22;7805;49.554;7.632;2023-03-14T09:46:53;12.40;99.90
15413;DHT22;7805;49.554;7.632;2023-03-14T09:49:40;12.50;99.90
15413;DHT22;7805;49.554;7.632;2023-03-14T09:52:16;12.40;99.90
15413;DHT22;7805;49.554;7.632;2023-03-14T09:54:56;12.40;99.90
15413;DHT22;7805;49.554;7.632;2023-03-14T09:57:24;12.30;99.90
15413;DHT22;7805;49.554;7.632;2023-03-14T09:59:53;12.20;99.90
15413;DHT22;7805;49.554;7.632;2023-03-14T10:02:22;12.20;99.90
15413;DHT22;7805;49.554;7.632;2023-03-14T10:04:50;12.20;99.90
15413;DHT22;7805;49.554;7.632;2023-03-14T10:07:30;12.10;99.90
15413;DHT22;7805;49.554;7.632;2023-03-14T10:09:56;12.10;99.90
15413;DHT22;7805;49.554;7.632;2023-03-14T10:12:35;12.00;99.90
15413;DHT22;7805;49.554;7.632;2023-03-14T10:15:07;12.00;99.90
15413;DHT22;7805;49.554;7.632;2023-03-14T10:17:47;11.90;99.90
15413;DHT22;7805;49.554;7.632;2023-03-14T10:23:02;11.80;99.90
15413;DHT22;7805;49.554;7.632;2023-03-14T10:25:33;11.80;99.90
15413;DHT22;7805;49.554;7.632;2023-03-14T10:28:00;11.80;99.90
15413;DHT22;7805;49.554;7.632;2023-03-14T10:32:54;11.80;99.90
15413;DHT22;7805;49.554;7.632;2023-03-14T10:35:22;11.80;99.90
15413;DHT22;7805;49.554;7.632;2023-03-14T10:38:00;11.80;99.90
15413;DHT22;7805;49.554;7.632;2023-03-14T10:40:30;11.80;99.90
15413;DHT22;7805;49.554;7.632;2023-03-14T10:42:58;11.70;99.90
15413;DHT22;7805;49.554;7.632;2023-03-14T10:45:32;11.80;99.90
15413;DHT22;7805;49.554;7.632;2023-03-14T10:48:05;11.70;99.90
15413;DHT22;7805;49.554;7.632;2023-03-14T10:50:32;11.70;99.90
15413;DHT22;7805;49.554;7.632;2023-03-14T10:53:02;11.80;99.90
15413;DHT22;7805;49.554;7.632;2023-03-14T10:55:43;11.80;99.90
15413;DHT22;7805;49.554;7.632;2023-03-14T11:03:27;12.10;99.90
15413;DHT22;7805;49.554;7.632;2023-03-14T11:05:59;12.00;99.90
15413;DHT22;7805;49.554;7.632;2023-03-14T11:08:34;11.90;99.90
15413;DHT22;7805;49.554;7.632;2023-03-14T11:11:25;12.00;99.90
15413;DHT22;7805;49.554;7.632;2023-03-14T11:17:11;12.10;99.90
15413;DHT22;7805;49.554;7.632;2023-03-14T11:22:50;11.70;99.90
15413;DHT22;7805;49.554;7.632;2023-03-14T11:30:50;11.50;99.90
15413;DHT22;7805;49.554;7.632;2023-03-14T11:33:17;11.50;99.90
15413;DHT22;7805;49.554;7.632;2023-03-14T11:38:58;11.20;99.90
15413;DHT22;7805;49.554;7.632;2023-03-14T11:41:36;11.10;99.90
15413;DHT22;7805;49.554;7.632;2023-03-14T11:44:30;10.80;99.90
15413;DHT22;7805;49.554;7.632;2023-03-14T11:47:04;10.70;99.90
15413;DHT22;7805;49.554;7.632;2023-03-14T11:54:51;11.00;99.90
15413;DHT22;7805;49.554;7.632;2023-03-14T11:57:20;11.20;99.90
15413;DHT22;7805;49.554;7.632;2023-03-14T12:02:35;11.30;99.90
15413;DHT22;7805;49.554;7.632;2023-03-14T12:10:54;11.40;99.90
15413;DHT22;7805;49.554;7.632;2023-03-14T12:13:20;11.20;99.90
15413;DHT22;7805;49.554;7.632;2023-03-14T12:15:58;11.10;99.90
15413;DHT22;7805;49.554;7.632;2023-03-14T12:18:35;11.00;99.90
15413;DHT22;7805;49.554;7.632;2023-03-14T12:21:07;11.00;99.90
15413;DHT22;7805;49.554;7.632;2023-03-14T12:23:47;11.00;99.90
15413;DHT22;7805;49.554;7.632;2023-03-14T12:26:19;11.00;99.90
15413;DHT22;7805;49.554;7.632;2023-03-14T12:39:41;9.70;99.90
15413;DHT22;7805;49.554;7.632;2023-03-14T12:42:13;10.10;99.90
15413;DHT22;7805;49.554;7.632;2023-03-14T12:44:41;10.30;99.90
15413;DHT22;7805;49.554;7.632;2023-03-14T12:49:42;10.40;99.90
15413;DHT22;7805;49.554;7.632;2023-03-14T12:52:15;10.40;99.90
15413;DHT22;7805;49.554;7.632;2023-03-14T12:54:59;10.40;99.90
15413;DHT22;7805;49.554;7.632;2023-03-14T12:57:42;10.30;99.90
15413;DHT22;7805;49.554;7.632;2023-03-14T13:00:19;10.10;99.90
15413;DHT22;7805;49.554;7.632;2023-03-14T13:02:46;9.60;99.90
15413;DHT22;7805;49.554;7.632;2023-03-14T13:05:21;9.40;99.90
15413;DHT22;7805;49.554;7.632;2023-03-14T13:10:22;8.90;99.90
15413;DHT22;7805;49.554;7.632;2023-03-14T13:12:55;9.10;99.90
15413;DHT22;7805;49.554;7.632;2023-03-14T13:15:26;8.80;99.90
15413;DHT22;7805;49.554;7.632;2023-03-14T13:17:54;8.90;99.90
15413;DHT22;7805;49.554;7.632;2023-03-14T13:20:26;9.00;99.90
15413;DHT22;7805;49.554;7.632;2023-03-14T13:22:54;9.10;99.90
15413;DHT22;7805;49.554;7.632;2023-03-14T13:25:19;9.10;99.90
15413;DHT22;7805;49.554;7.632;2023-03-14T13:27:47;9.20;99.90
15413;DHT22;7805;49.554;7.632;2023-03-14T13:30:20;9.80;99.90
15413;DHT22;7805;49.554;7.632;2023-03-14T13:32:48;10.60;99.90
15413;DHT22;7805;49.554;7.632;2023-03-14T13:35:16;11.20;99.90
15413;DHT22;7805;49.554;7.632;2023-03-14T13:37:42;11.30;99.90
15413;DHT22;7805;49.554;7.632;2023-03-14T13:40:24;12.00;99.90
15413;DHT22;7805;49.554;7.632;2023-03-14T13:43:00;12.10;99.90
15413;DHT22;7805;49.554;7.632;2023-03-14T13:45:26;12.40;99.90
15413;DHT22;7805;49.554;7.632;2023-03-14T13:47:52;12.50;99.90
15413;DHT22;7805;49.554;7.632;2023-03-14T13:50:18;12.90;99.70
15413;DHT22;7805;49.554;7.632;2023-03-14T13:52:44;12.90;97.90
15413;DHT22;7805;49.554;7.632;2023-03-14T13:55:17;12.40;96.30
15413;DHT22;7805;49.554;7.632;2023-03-14T13:57:48;11.80;94.50
15413;DHT22;7805;49.554;7.632;2023-03-14T14:00:22;11.70;94.00
15413;DHT22;7805;49.554;7.632;2023-03-14T14:02:52;10.90;94.60
15413;DHT22;7805;49.554;7.632;2023-03-14T14:05:18;10.60;94.70
15413;DHT22;7805;49.554;7.632;2023-03-14T14:07:44;10.60;95.70
15413;DHT22;7805;49.554;7.632;2023-03-14T14:10:12;10.60;95.00
15413;DHT22;7805;49.554;7.632;2023-03-14T14:12:52;10.90;95.40
15413;DHT22;7805;49.554;7.632;2023-03-14T14:15:21;11.80;94.60
15413;DHT22;7805;49.554;7.632;2023-03-14T14:18:01;11.90;92.50
15413;DHT22;7805;49.554;7.632;2023-03-14T14:20:36;11.70;91.90
15413;DHT22;7805;49.554;7.632;2023-03-14T14:23:05;12.20;91.90
15413;DHT22;7805;49.554;7.632;2023-03-14T14:25:32;12.50;92.40
15413;DHT22;7805;49.554;7.632;2023-03-14T14:27:58;12.70;91.80
15413;DHT22;7805;49.554;7.632;2023-03-14T14:30:30;12.60;90.30
15413;DHT22;7805;49.554;7.632;2023-03-14T14:33:17;12.40;89.20
15413;DHT22;7805;49.554;7.632;2023-03-14T14:35:50;12.80;90.10
15413;DHT22;7805;49.554;7.632;2023-03-14T14:38:17;13.00;89.80
15413;DHT22;7805;49.554;7.632;2023-03-14T14:40:47;13.10;88.80
15413;DHT22;7805;49.554;7.632;2023-03-14T14:43:25;12.90;86.30
15413;DHT22;7805;49.554;7.632;2023-03-14T14:45:53;13.10;84.90
15413;DHT22;7805;49.554;7.632;2023-03-14T14:48:24;13.20;82.80
15413;DHT22;7805;49.554;7.632;2023-03-14T14:51:00;13.30;83.10
15413;DHT22;7805;49.554;7.632;2023-03-14T14:53:35;13.90;81.60
15413;DHT22;7805;49.554;7.632;2023-03-14T14:56:16;13.70;81.60
15413;DHT22;7805;49.554;7.632;2023-03-14T14:58:45;13.90;81.00
15413;DHT22;7805;49.554;7.632;2023-03-14T15:03:36;13.60;81.50
15413;DHT22;7805;49.554;7.632;2023-03-14T15:06:03;13.70;79.60
15413;DHT22;7805;49.554;7.632;2023-03-14T15:08:28;13.80;81.60
15413;DHT22;7805;49.554;7.632;2023-03-14T15:10:55;14.20;82.10
15413;DHT22;7805;49.554;7.632;2023-03-14T15:13:21;13.90;76.50
15413;DHT22;7805;49.554;7.632;2023-03-14T15:15:48;13.90;78.50
15413;DHT22;7805;49.554;7.632;2023-03-14T15:18:17;13.80;78.10
15413;DHT22;7805;49.554;7.632;2023-03-14T15:20:45;13.90;79.10
15413;DHT22;7805;49.554;7.632;2023-03-14T15:23:16;14.20;79.40
15413;DHT22;7805;49.554;7.632;2023-03-14T15:25:42;14.50;78.30
15413;DHT22;7805;49.554;7.632;2023-03-14T15:28:21;14.30;75.50
15413;DHT22;7805;49.554;7.632;2023-03-14T15:30:48;14.10;73.50
15413;DHT22;7805;49.554;7.632;2023-03-14T15:33:15;13.40;73.30
15413;DHT22;7805;49.554;7.632;2023-03-14T15:35:41;13.40;77.20
15413;DHT22;7805;49.554;7.632;2023-03-14T15:38:12;13.60;77.90
15413;DHT22;7805;49.554;7.632;2023-03-14T15:40:38;13.90;79.10
15413;DHT22;7805;49.554;7.632;2023-03-14T15:43:04;14.20;82.80
15413;DHT22;7805;49.554;7.632;2023-03-14T15:45:30;14.30;81.00
15413;DHT22;7805;49.554;7.632;2023-03-14T15:47:56;14.50;81.80
15413;DHT22;7805;49.554;7.632;2023-03-14T15:50:22;14.60;76.50
15413;DHT22;7805;49.554;7.632;2023-03-14T15:52:48;14.10;77.30
15413;DHT22;7805;49.554;7.632;2023-03-14T15:55:13;14.00;76.10
15413;DHT22;7805;49.554;7.632;2023-03-14T15:57:40;13.80;76.90
15413;DHT22;7805;49.554;7.632;2023-03-14T16:00:08;13.50;75.20
15413;DHT22;7805;49.554;7.632;2023-03-14T16:02:36;13.10;76.50
15413;DHT22;7805;49.554;7.632;2023-03-14T16:05:05;13.00;77.80
15413;DHT22;7805;49.554;7.632;2023-03-14T16:07:31;13.10;79.20
15413;DHT22;7805;49.554;7.632;2023-03-14T16:09:58;13.20;77.60
15413;DHT22;7805;49.554;7.632;2023-03-14T16:12:24;13.10;74.90
15413;DHT22;7805;49.554;7.632;2023-03-14T16:14:49;12.80;74.00
15413;DHT22;7805;49.554;7.632;2023-03-14T16:17:15;12.70;74.40
15413;DHT22;7805;49.554;7.632;2023-03-14T16:19:40;12.40;74.30
15413;DHT22;7805;49.554;7.632;2023-03-14T16:22:06;12.30;75.30
15413;DHT22;7805;49.554;7.632;2023-03-14T16:24:32;12.10;74.80
15413;DHT22;7805;49.554;7.632;2023-03-14T16:26:58;12.00;75.40
15413;DHT22;7805;49.554;7.632;2023-03-14T16:29:23;11.80;76.40
15413;DHT22;7805;49.554;7.632;2023-03-14T16:31:49;11.60;77.40
15413;DHT22;7805;49.554;7.632;2023-03-14T16:34:14;11.40;77.90
15413;DHT22;7805;49.554;7.632;2023-03-14T16:36:40;11.30;79.50
15413;DHT22;7805;49.554;7.632;2023-03-14T16:39:05;11.10;79.30
15413;DHT22;7805;49.554;7.632;2023-03-14T16:41:31;11.10;80.70
15413;DHT22;7805;49.554;7.632;2023-03-14T16:43:57;11.00;81.40
15413;DHT22;7805;49.554;7.632;2023-03-14T16:46:23;10.90;83.90
15413;DHT22;7805;49.554;7.632;2023-03-14T16:48:50;10.60;89.30
15413;DHT22;7805;49.554;7.632;2023-03-14T16:51:16;10.50;91.30
15413;DHT22;7805;49.554;7.632;2023-03-14T16:53:42;10.30;92.20
15413;DHT22;7805;49.554;7.632;2023-03-14T16:56:08;10.10;93.50
15413;DHT22;7805;49.554;7.632;2023-03-14T16:58:34;9.70;95.40
15413;DHT22;7805;49.554;7.632;2023-03-14T17:01:03;10.00;95.90